Time;durP1;ratioP1;P1;durP2;ratioP2;P2;SDS_P1;SDS_P2;PMS_P1;PMS_P2;Temp;Humidity;BMP_temperature;BMP_pressure;BME280_temperature;BME280_humidity;BME280_pressure;Samples;Min_cycle;Max_cycle;Signal;HPM_P1;HPM_P2
2024/03/24 00:01:37;;;;;;;;;;;;;;;10.13;43.64;93969.47;4168996;28;19928;-66
2024/03/24 00:03:38;;;;;;;;;;;;;;;10.07;43.62;93965.78;4173594;28;19920;-66
2024/03/24 00:05:38;;;;;;;;;;;;;;;10.12;43.70;93968.69;4172473;28;19983;-67
2024/03/24 00:07:39;;;;;;;;;;;;;;;10.10;44.09;93954.94;4171499;28;20079;-66
2024/03/24 00:09:40;;;;;;;;;;;;;;;9.67;43.90;93951.13;4175020;28;20015;-67
2024/03/24 00:11:42;;;;;;;;;;;;;;;9.04;44.84;93942.41;4164720;28;19979;-67
2024/03/24 00:13:42;;;;;;;;;;;;;;;9.10;45.49;93962.63;4162740;28;19929;-67
2024/03/24 00:15:43;;;;;;;;;;;;;;;9.28;45.61;93968.44;4173673;28;19979;-65
2024/03/24 00:17:44;;;;;;;;;;;;;;;9.50;45.15;93958.25;4169343;28;19970;-66
2024/03/24 00:19:44;;;;;;;;;;;;;;;9.36;45.50;93951.94;4171735;28;19928;-67
2024/03/24 00:21:45;;;;;;;;;;;;;;;9.11;45.84;93961.66;4166148;28;19921;-66
2024/03/24 00:23:45;;;;;;;;;;;;;;;9.29;45.88;93961.41;4171351;28;20384;-67
2024/03/24 00:25:46;;;;;;;;;;;;;;;9.47;45.23;93950.75;4165220;28;19974;-66
2024/03/24 00:27:46;;;;;;;;;;;;;;;9.59;45.05;93951.97;4165601;28;19936;-68
2024/03/24 00:29:47;;;;;;;;;;;;;;;9.69;44.99;93947.34;4167921;28;20006;-67
2024/03/24 00:31:48;;;;;;;;;;;;;;;9.73;45.18;93940.78;4166282;28;19920;-67
2024/03/24 00:33:48;;;;;;;;;;;;;;;9.78;45.15;93942.88;4174919;28;20383;-66
2024/03/24 00:35:49;;;;;;;;;;;;;;;9.89;44.73;93949.53;4174663;28;19928;-67
2024/03/24 00:37:50;;;;;;;;;;;;;;;9.96;44.14;93946.06;4170144;28;19983;-66
2024/03/24 00:39:52;;;;;;;;;;;;;;;9.99;44.74;93953.56;4164261;28;19925;-66
2024/03/24 00:41:53;;;;;;;;;;;;;;;10.04;44.19;93945.16;4170414;28;19921;-66
2024/03/24 00:43:53;;;;;;;;;;;;;;;10.06;44.90;93930.13;4172060;28;19955;-66
2024/03/24 00:45:54;;;;;;;;;;;;;;;10.04;44.39;93926.84;4172876;28;19921;-66
2024/03/24 00:47:56;;;;;;;;;;;;;;;9.95;44.70;93918.25;4167330;28;19971;-66
2024/03/24 00:49:56;;;;;;;;;;;;;;;9.91;45.37;93918.78;4169348;28;19921;-66
2024/03/24 00:51:57;;;;;;;;;;;;;;;9.95;44.70;93920.06;4172173;28;20499;-66
2024/03/24 00:53:58;;;;;;;;;;;;;;;9.98;44.30;93924.94;4160320;28;19972;-67
2024/03/24 00:55:58;;;;;;;;;;;;;;;9.96;45.02;93919.06;4168988;28;19921;-66
2024/03/24 00:57:59;;;;;;;;;;;;;;;9.86;44.83;93921.91;4164969;28;19921;-66
2024/03/24 01:00:00;;;;;;;;;;;;;;;9.86;44.54;93914.06;4163157;28;19929;-67
2024/03/24 01:02:00;;;;;;;;;;;;;;;9.87;44.78;93914.88;4168241;28;19924;-65
2024/03/24 01:04:01;;;;;;;;;;;;;;;9.93;44.57;93909.75;4171037;28;19921;-67
2024/03/24 01:06:04;;;;;;;;;;;;;;;9.95;45.06;93914.81;4192818;28;19924;-65
2024/03/24 01:08:05;;;;;;;;;;;;;;;9.94;44.90;93907.97;4171210;28;19949;-66
2024/03/24 01:10:05;;;;;;;;;;;;;;;9.95;44.78;93897.31;4162313;28;19927;-66
2024/03/24 01:12:07;;;;;;;;;;;;;;;9.94;45.17;93900.13;4155130;28;19921;-67
2024/03/24 01:14:07;;;;;;;;;;;;;;;9.90;45.03;93885.75;4158963;28;19929;-66
2024/03/24 01:16:08;;;;;;;;;;;;;;;9.78;45.42;93883.53;4164994;28;19929;-66
2024/03/24 01:18:09;;;;;;;;;;;;;;;9.80;45.26;93880.75;4167301;28;20426;-65
2024/03/24 01:20:12;;;;;;;;;;;;;;;9.82;45.22;93887.44;4172677;28;19954;-68
2024/03/24 01:22:13;;;;;;;;;;;;;;;9.83;45.58;93889.06;4167001;28;20547;-66
2024/03/24 01:24:13;;;;;;;;;;;;;;;9.83;45.56;93891.69;4172322;28;19990;-66
2024/03/24 01:26:14;;;;;;;;;;;;;;;9.85;45.74;93883.66;4171357;28;20349;-68
2024/03/24 01:28:14;;;;;;;;;;;;;;;9.86;45.60;93882.69;4175402;28;20063;-66
2024/03/24 01:30:15;;;;;;;;;;;;;;;9.88;45.08;93872.84;4167537;28;19925;-66
2024/03/24 01:32:15;;;;;;;;;;;;;;;9.82;45.45;93874.34;4167410;28;20043;-67
2024/03/24 01:34:16;;;;;;;;;;;;;;;9.78;45.36;93874.88;4168078;28;20411;-66
2024/03/24 01:36:17;;;;;;;;;;;;;;;9.79;45.30;93879.13;4176995;28;20066;-67
2024/03/24 01:38:17;;;;;;;;;;;;;;;9.82;45.11;93873.53;4168826;28;19928;-66
2024/03/24 01:40:18;;;;;;;;;;;;;;;9.79;45.23;93877.34;4179804;28;20370;-65
2024/03/24 01:42:19;;;;;;;;;;;;;;;9.81;45.27;93871.94;4179118;28;20395;-66
2024/03/24 01:44:19;;;;;;;;;;;;;;;9.82;45.48;93869.13;4177435;28;20486;-66
2024/03/24 01:46:20;;;;;;;;;;;;;;;9.84;45.23;93872.38;4175303;28;19925;-68
2024/03/24 01:48:20;;;;;;;;;;;;;;;9.83;45.11;93873.38;4177691;28;19925;-65
2024/03/24 01:50:21;;;;;;;;;;;;;;;9.82;44.98;93863.88;4177477;28;20394;-67
2024/03/24 01:52:21;;;;;;;;;;;;;;;9.87;45.54;93862.56;4168266;28;20346;-67
2024/03/24 01:54:22;;;;;;;;;;;;;;;9.89;45.15;93858.78;4165907;28;20404;-66
2024/03/24 01:56:23;;;;;;;;;;;;;;;9.91;44.59;93869.06;4155839;28;19971;-66
2024/03/24 01:58:25;;;;;;;;;;;;;;;9.88;44.79;93864.19;4171318;28;20431;-66
2024/03/24 02:00:26;;;;;;;;;;;;;;;9.76;44.50;93859.34;4167771;28;20012;-67
2024/03/24 02:02:26;;;;;;;;;;;;;;;9.77;44.67;93858.38;4169852;28;19972;-66
2024/03/24 02:04:27;;;;;;;;;;;;;;;9.80;44.80;93865.88;4174289;28;20460;-65
2024/03/24 02:06:27;;;;;;;;;;;;;;;9.87;44.77;93860.75;4172262;28;20362;-66
2024/03/24 02:08:28;;;;;;;;;;;;;;;9.94;44.49;93856.47;4169997;28;19920;-66
2024/03/24 02:10:29;;;;;;;;;;;;;;;9.94;44.74;93866.94;4174733;28;19920;-67
2024/03/24 02:12:29;;;;;;;;;;;;;;;9.88;44.67;93859.78;4174986;28;19928;-68
2024/03/24 02:14:31;;;;;;;;;;;;;;;9.80;44.73;93859.81;4176484;28;19932;-67
2024/03/24 02:16:32;;;;;;;;;;;;;;;9.79;44.78;93856.41;4177674;28;19927;-66
2024/03/24 02:18:33;;;;;;;;;;;;;;;9.83;45.07;93851.66;4158705;28;20044;-66
2024/03/24 02:20:35;;;;;;;;;;;;;;;9.89;45.29;93857.97;4167951;28;20483;-64
2024/03/24 02:22:38;;;;;;;;;;;;;;;9.92;44.96;93852.41;4177197;28;20439;-67
2024/03/24 02:24:39;;;;;;;;;;;;;;;9.97;44.84;93850.06;4177864;28;20310;-67
2024/03/24 02:26:39;;;;;;;;;;;;;;;10.00;45.03;93855.75;4177516;28;19921;-67
2024/03/24 02:28:40;;;;;;;;;;;;;;;10.01;45.01;93849.53;4168841;28;20014;-66
2024/03/24 02:30:40;;;;;;;;;;;;;;;10.04;44.47;93848.34;4153151;28;20356;-67
2024/03/24 02:32:44;;;;;;;;;;;;;;;10.04;44.92;93846.56;4177591;28;19970;-67
2024/03/24 02:34:45;;;;;;;;;;;;;;;10.07;45.04;93844.56;4165800;28;19921;-66
2024/03/24 02:36:46;;;;;;;;;;;;;;;10.08;45.00;93841.78;4176159;28;19925;-67
2024/03/24 02:38:46;;;;;;;;;;;;;;;10.05;44.76;93852.63;4170817;28;20003;-68
2024/03/24 02:40:47;;;;;;;;;;;;;;;10.06;44.85;93849.00;4170712;28;19925;-65
2024/03/24 02:42:48;;;;;;;;;;;;;;;10.08;44.62;93841.78;4173847;28;19924;-66
2024/03/24 02:44:48;;;;;;;;;;;;;;;10.07;44.37;93842.78;4170217;28;19929;-66
2024/03/24 02:46:49;;;;;;;;;;;;;;;10.08;44.47;93848.81;4177663;28;19920;-65
2024/03/24 02:48:49;;;;;;;;;;;;;;;10.11;44.73;93846.69;4159122;28;20041;-67
2024/03/24 02:50:50;;;;;;;;;;;;;;;10.16;44.60;93843.53;4174915;28;19924;-66
2024/03/24 02:52:51;;;;;;;;;;;;;;;10.19;44.92;93843.16;4170083;28;19968;-66
2024/03/24 02:54:51;;;;;;;;;;;;;;;10.19;44.29;93843.97;4175177;28;19925;-66
2024/03/24 02:56:52;;;;;;;;;;;;;;;10.21;44.11;93852.44;4171357;28;20010;-65
2024/03/24 02:58:52;;;;;;;;;;;;;;;10.02;44.43;93851.16;4167611;28;19921;-65
2024/03/24 03:00:53;;;;;;;;;;;;;;;9.96;45.21;93853.66;4165678;28;19925;-66
2024/03/24 03:02:54;;;;;;;;;;;;;;;9.98;44.70;93842.03;4172420;28;20707;-67
2024/03/24 03:04:54;;;;;;;;;;;;;;;10.00;44.73;93854.94;4166741;28;20261;-66
2024/03/24 03:06:55;;;;;;;;;;;;;;;10.08;44.91;93844.41;4170456;28;19963;-66
2024/03/24 03:08:55;;;;;;;;;;;;;;;10.16;44.46;93843.53;4175052;28;19921;-66
2024/03/24 03:10:56;;;;;;;;;;;;;;;10.18;44.53;93849.41;4176929;28;20095;-66
2024/03/24 03:12:57;;;;;;;;;;;;;;;10.17;44.76;93842.53;4173142;28;19946;-69
2024/03/24 03:14:58;;;;;;;;;;;;;;;10.14;44.88;93838.47;4167224;28;19975;-68
2024/03/24 03:16:59;;;;;;;;;;;;;;;10.14;44.50;93840.28;4168277;28;20395;-67
2024/03/24 03:18:59;;;;;;;;;;;;;;;9.76;45.17;93846.28;4172445;28;19929;-66
2024/03/24 03:21:00;;;;;;;;;;;;;;;9.72;45.36;93849.41;4167395;28;20049;-66
2024/03/24 03:23:00;;;;;;;;;;;;;;;9.62;45.90;93840.00;4166040;28;19935;-67
2024/03/24 03:25:01;;;;;;;;;;;;;;;9.36;46.17;93848.19;4169692;28;19925;-69
2024/03/24 03:27:02;;;;;;;;;;;;;;;9.39;46.63;93844.41;4170757;28;19925;-66
2024/03/24 03:29:02;;;;;;;;;;;;;;;9.49;46.68;93834.56;4169523;28;20355;-67
2024/03/24 03:31:03;;;;;;;;;;;;;;;9.49;46.77;93837.16;4171646;28;19921;-66
2024/03/24 03:33:03;;;;;;;;;;;;;;;9.43;47.19;93828.19;4171695;28;19932;-65
2024/03/24 03:35:04;;;;;;;;;;;;;;;9.46;46.90;93834.06;4174956;28;19931;-66
2024/03/24 03:37:05;;;;;;;;;;;;;;;9.56;46.48;93834.66;4172927;28;19921;-65
2024/03/24 03:39:05;;;;;;;;;;;;;;;9.63;47.16;93825.13;4170540;28;20012;-67
2024/03/24 03:41:06;;;;;;;;;;;;;;;9.72;46.53;93824.09;4168598;28;20469;-66
2024/03/24 03:43:08;;;;;;;;;;;;;;;9.79;46.96;93821.59;4174308;28;19921;-65
2024/03/24 03:45:10;;;;;;;;;;;;;;;9.77;47.02;93816.53;4173295;28;19998;-65
2024/03/24 03:47:11;;;;;;;;;;;;;;;9.64;47.50;93819.72;4172929;28;20255;-65
2024/03/24 03:49:16;;;;;;;;;;;;;;;9.63;47.12;93818.09;4162365;28;19921;-66
2024/03/24 03:51:29;;;;;;;;;;;;;;;9.64;47.02;93822.34;4167562;28;19921;-66
2024/03/24 03:53:36;;;;;;;;;;;;;;;9.65;47.18;93831.00;4171259;28;20157;-66
2024/03/24 03:55:37;;;;;;;;;;;;;;;9.62;47.41;93836.59;4175150;28;19921;-66
2024/03/24 03:57:39;;;;;;;;;;;;;;;9.62;47.25;93826.13;4172486;28;19999;-66
2024/03/24 03:59:40;;;;;;;;;;;;;;;9.64;47.44;93826.78;4173876;28;20378;-65
2024/03/24 04:01:41;;;;;;;;;;;;;;;9.64;47.00;93818.94;4166525;28;19931;-65
2024/03/24 04:03:41;;;;;;;;;;;;;;;9.63;47.23;93820.69;4163666;28;19925;-68
2024/03/24 04:05:42;;;;;;;;;;;;;;;9.67;46.96;93829.03;4175810;28;19945;-67
2024/03/24 04:07:43;;;;;;;;;;;;;;;9.54;47.95;93839.25;4179447;28;19959;-66
2024/03/24 04:09:43;;;;;;;;;;;;;;;9.47;47.82;93831.28;4171609;28;19928;-67
2024/03/24 04:11:44;;;;;;;;;;;;;;;9.46;47.53;93841.91;4159530;28;20011;-65
2024/03/24 04:13:47;;;;;;;;;;;;;;;9.49;48.17;93837.16;4174669;28;20281;-66
2024/03/24 04:15:47;;;;;;;;;;;;;;;9.54;48.61;93836.63;4176343;28;19924;-66
2024/03/24 04:17:48;;;;;;;;;;;;;;;9.58;48.70;93832.69;4172001;28;20402;-67
2024/03/24 04:19:48;;;;;;;;;;;;;;;9.54;48.45;93826.19;4166360;28;19921;-64
2024/03/24 04:21:49;;;;;;;;;;;;;;;9.47;48.85;93835.72;4174235;28;19966;-65
2024/03/24 04:23:50;;;;;;;;;;;;;;;9.39;49.14;93841.78;4175249;28;19956;-66
2024/03/24 04:25:54;;;;;;;;;;;;;;;8.94;50.33;93838.91;4166736;28;19936;-66
2024/03/24 04:27:55;;;;;;;;;;;;;;;8.58;50.83;93839.41;4164183;28;20003;-66
2024/03/24 04:29:55;;;;;;;;;;;;;;;8.54;51.61;93842.47;4172678;28;20307;-65
2024/03/24 04:31:56;;;;;;;;;;;;;;;8.67;50.77;93844.56;4162496;28;20360;-66
2024/03/24 04:33:56;;;;;;;;;;;;;;;8.76;51.21;93831.31;4167202;28;20031;-66
2024/03/24 04:35:57;;;;;;;;;;;;;;;8.76;51.32;93857.44;4173623;28;19920;-65
2024/03/24 04:37:58;;;;;;;;;;;;;;;8.78;50.56;93850.25;4167218;28;19937;-66
2024/03/24 04:39:58;;;;;;;;;;;;;;;8.76;51.22;93851.41;4171019;28;19920;-64
2024/03/24 04:42:00;;;;;;;;;;;;;;;8.82;51.23;93851.53;4163536;28;19959;-65
2024/03/24 04:44:00;;;;;;;;;;;;;;;8.92;50.61;93851.31;4172985;28;19970;-66
2024/03/24 04:46:01;;;;;;;;;;;;;;;9.00;50.68;93859.13;4171332;28;19960;-65
2024/03/24 04:48:02;;;;;;;;;;;;;;;9.11;50.77;93864.97;4168396;28;19991;-67
2024/03/24 04:50:04;;;;;;;;;;;;;;;9.16;50.51;93862.66;4174132;28;19971;-65
2024/03/24 04:52:05;;;;;;;;;;;;;;;9.21;50.61;93873.44;4172213;28;19925;-65
2024/03/24 04:54:06;;;;;;;;;;;;;;;9.29;50.08;93869.94;4171377;28;19927;-65
2024/03/24 04:56:07;;;;;;;;;;;;;;;9.36;50.16;93866.50;4168765;28;19987;-67
2024/03/24 04:58:08;;;;;;;;;;;;;;;9.02;50.90;93866.81;4148672;28;20359;-65
2024/03/24 05:00:10;;;;;;;;;;;;;;;9.02;50.86;93872.03;4175888;28;20442;-67
2024/03/24 05:02:12;;;;;;;;;;;;;;;9.07;51.06;93871.53;4169187;28;19987;-67
2024/03/24 05:04:12;;;;;;;;;;;;;;;8.97;50.68;93862.09;4169008;28;20314;-69
2024/03/24 05:06:13;;;;;;;;;;;;;;;8.75;51.19;93873.25;4174474;28;19921;-67
2024/03/24 05:08:14;;;;;;;;;;;;;;;8.79;51.41;93869.34;4170396;28;19929;-73
2024/03/24 05:10:15;;;;;;;;;;;;;;;8.92;51.52;93860.97;4171276;28;19921;-67
2024/03/24 05:12:16;;;;;;;;;;;;;;;8.99;51.10;93857.53;4175599;28;19920;-67
2024/03/24 05:14:17;;;;;;;;;;;;;;;9.09;51.38;93859.91;4176087;28;19927;-65
2024/03/24 05:16:19;;;;;;;;;;;;;;;9.20;50.49;93856.91;4173569;28;19932;-67
2024/03/24 05:18:19;;;;;;;;;;;;;;;9.33;50.67;93856.34;4173029;28;19921;-68
2024/03/24 05:20:20;;;;;;;;;;;;;;;9.48;50.07;93853.81;4168707;28;20390;-68
2024/03/24 05:22:21;;;;;;;;;;;;;;;9.56;50.27;93863.44;4173411;28;19975;-68
2024/03/24 05:24:21;;;;;;;;;;;;;;;9.63;49.75;93861.75;4173733;28;19931;-67
2024/03/24 05:26:22;;;;;;;;;;;;;;;9.74;49.73;93852.69;4174730;28;19958;-68
2024/03/24 05:28:23;;;;;;;;;;;;;;;9.83;49.82;93849.84;4168654;28;19920;-67
2024/03/24 05:30:25;;;;;;;;;;;;;;;9.97;53.99;93850.06;4170465;28;20221;-67
2024/03/24 05:32:26;;;;;;;;;;;;;;;10.01;51.27;93857.38;4165251;28;19920;-67
2024/03/24 05:34:27;;;;;;;;;;;;;;;10.05;50.19;93852.63;4160302;28;20446;-68
2024/03/24 05:36:28;;;;;;;;;;;;;;;10.07;49.80;93849.78;4176106;28;20705;-67
2024/03/24 05:38:29;;;;;;;;;;;;;;;10.10;49.38;93860.72;4166802;28;19921;-67
2024/03/24 05:40:29;;;;;;;;;;;;;;;10.12;49.18;93852.72;4162484;28;19921;-67
2024/03/24 05:42:30;;;;;;;;;;;;;;;10.15;49.14;93845.34;4171739;28;19931;-67
2024/03/24 05:44:30;;;;;;;;;;;;;;;10.26;48.92;93844.09;4173393;28;19975;-68
2024/03/24 05:46:32;;;;;;;;;;;;;;;10.32;48.72;93863.53;4172202;28;19929;-66
2024/03/24 05:48:36;;;;;;;;;;;;;;;10.40;49.77;93866.06;4169272;28;19921;-68
2024/03/24 05:50:36;;;;;;;;;;;;;;;10.36;48.76;93865.59;4171163;28;19921;-66
2024/03/24 05:52:37;;;;;;;;;;;;;;;10.41;48.77;93855.44;4170022;28;20438;-67
2024/03/24 05:54:38;;;;;;;;;;;;;;;10.47;48.79;93856.50;4172896;28;19925;-68
2024/03/24 05:56:38;;;;;;;;;;;;;;;10.57;48.80;93858.88;4173386;28;19928;-69
2024/03/24 05:58:39;;;;;;;;;;;;;;;10.63;48.81;93864.19;4170763;28;19920;-67
2024/03/24 06:00:40;;;;;;;;;;;;;;;10.72;48.27;93856.25;4172573;28;19921;-67
2024/03/24 06:02:41;;;;;;;;;;;;;;;10.83;48.00;93855.81;4168081;28;19925;-69
2024/03/24 06:04:42;;;;;;;;;;;;;;;10.91;48.24;93853.09;4157391;28;19921;-68
2024/03/24 06:06:44;;;;;;;;;;;;;;;10.91;48.55;93858.34;4171698;28;19921;-67
2024/03/24 06:08:44;;;;;;;;;;;;;;;10.86;48.51;93860.66;4165111;28;19931;-65
2024/03/24 06:10:45;;;;;;;;;;;;;;;10.88;48.87;93860.50;4164137;28;19928;-68
2024/03/24 06:12:45;;;;;;;;;;;;;;;10.78;49.08;93848.50;4166536;28;19932;-67
2024/03/24 06:14:47;;;;;;;;;;;;;;;10.85;48.93;93859.06;4167109;28;19928;-67
2024/03/24 06:16:48;;;;;;;;;;;;;;;10.93;49.03;93864.22;4167226;28;19925;-68
2024/03/24 06:18:48;;;;;;;;;;;;;;;11.05;48.96;93852.25;4169680;28;20025;-68
2024/03/24 06:20:49;;;;;;;;;;;;;;;11.12;48.81;93847.13;4169403;28;20311;-67
2024/03/24 06:22:51;;;;;;;;;;;;;;;11.24;48.49;93850.88;4167637;28;19972;-69
2024/03/24 06:24:52;;;;;;;;;;;;;;;11.33;48.18;93842.91;4171226;28;19925;-67
2024/03/24 06:26:53;;;;;;;;;;;;;;;11.39;48.27;93852.66;4176203;28;19964;-66
2024/03/24 06:28:53;;;;;;;;;;;;;;;11.40;48.31;93849.88;4166974;28;19921;-68
2024/03/24 06:30:55;;;;;;;;;;;;;;;11.34;48.50;93849.78;4175561;28;20355;-70
2024/03/24 06:32:56;;;;;;;;;;;;;;;11.33;48.82;93851.56;4167462;28;19925;-69
2024/03/24 06:34:57;;;;;;;;;;;;;;;11.11;49.21;93835.00;4169775;28;20023;-70
2024/03/24 06:36:57;;;;;;;;;;;;;;;11.20;53.90;93854.06;4175431;28;19940;-67
2024/03/24 06:38:58;;;;;;;;;;;;;;;11.38;51.07;93843.16;4174475;28;19928;-68
2024/03/24 06:40:58;;;;;;;;;;;;;;;11.39;49.12;93848.22;4179647;28;19924;-69
2024/03/24 06:42:59;;;;;;;;;;;;;;;11.08;49.45;93840.63;4177049;28;20030;-66
2024/03/24 06:45:08;;;;;;;;;;;;;;;11.07;49.63;93845.03;4171538;28;19975;-69
2024/03/24 06:47:08;;;;;;;;;;;;;;;11.12;49.52;93838.41;4176256;28;19920;-70
2024/03/24 06:49:11;;;;;;;;;;;;;;;11.11;49.87;93836.81;4175950;28;19970;-69
2024/03/24 06:51:11;;;;;;;;;;;;;;;11.21;49.88;93837.34;4175639;28;19972;-68
2024/03/24 06:53:14;;;;;;;;;;;;;;;11.28;49.67;93843.47;4171976;28;20559;-69
2024/03/24 06:55:15;;;;;;;;;;;;;;;11.11;49.94;93835.00;4174863;28;19970;-69
2024/03/24 06:57:16;;;;;;;;;;;;;;;11.20;50.23;93841.75;4170579;28;19925;-66
2024/03/24 06:59:17;;;;;;;;;;;;;;;11.50;49.44;93839.06;4173887;28;20026;-68
2024/03/24 07:01:21;;;;;;;;;;;;;;;11.77;48.82;93834.91;4170627;28;20420;-68
2024/03/24 07:03:22;;;;;;;;;;;;;;;11.93;48.47;93843.56;4173187;28;19924;-67
2024/03/24 07:05:23;;;;;;;;;;;;;;;11.98;47.48;93838.53;4175830;28;20461;-66
2024/03/24 07:07:24;;;;;;;;;;;;;;;12.09;47.54;93840.69;4183506;28;19921;-68
2024/03/24 07:09:25;;;;;;;;;;;;;;;12.03;47.33;93830.94;4176652;28;20390;-67
2024/03/24 07:11:26;;;;;;;;;;;;;;;12.13;47.56;93831.41;4179504;28;19982;-67
2024/03/24 07:13:26;;;;;;;;;;;;;;;12.35;47.25;93832.19;4166648;28;19968;-67
2024/03/24 07:15:27;;;;;;;;;;;;;;;12.57;46.85;93829.50;4177147;28;20384;-67
2024/03/24 07:17:27;;;;;;;;;;;;;;;12.61;46.49;93823.69;4177078;28;20375;-69
2024/03/24 07:19:28;;;;;;;;;;;;;;;12.72;45.94;93830.22;4176772;28;19999;-67
2024/03/24 07:21:28;;;;;;;;;;;;;;;12.62;46.00;93825.28;4174835;28;19974;-68
2024/03/24 07:23:32;;;;;;;;;;;;;;;12.39;46.50;93819.47;4171025;28;20352;-69
2024/03/24 07:25:32;;;;;;;;;;;;;;;11.85;47.43;93824.28;4159880;28;19968;-68
2024/03/24 07:27:33;;;;;;;;;;;;;;;11.88;47.35;93823.13;4168667;28;19921;-68
2024/03/24 07:29:34;;;;;;;;;;;;;;;12.05;46.84;93810.56;4170061;28;20026;-68
2024/03/24 07:31:35;;;;;;;;;;;;;;;12.31;46.88;93798.63;4177622;28;19924;-66
2024/03/24 07:33:35;;;;;;;;;;;;;;;12.45;46.67;93795.91;4172699;28;19993;-70
2024/03/24 07:35:36;;;;;;;;;;;;;;;12.62;46.55;93792.94;4171116;28;19955;-66
2024/03/24 07:37:38;;;;;;;;;;;;;;;12.81;45.93;93791.44;4167231;28;19921;-67
2024/03/24 07:39:38;;;;;;;;;;;;;;;12.81;46.11;93786.97;4169190;28;20022;-68
2024/03/24 07:41:39;;;;;;;;;;;;;;;12.62;46.14;93778.00;4173466;28;19921;-68
2024/03/24 07:43:40;;;;;;;;;;;;;;;12.82;45.79;93783.38;4173180;28;19921;-66
2024/03/24 07:45:40;;;;;;;;;;;;;;;12.99;45.53;93786.47;4161338;28;19959;-67
2024/03/24 07:47:42;;;;;;;;;;;;;;;13.25;44.86;93787.56;4167934;28;19924;-66
2024/03/24 07:49:42;;;;;;;;;;;;;;;13.31;44.81;93781.53;4175734;28;19920;-69
2024/03/24 07:51:43;;;;;;;;;;;;;;;13.11;45.33;93790.16;4175458;28;19960;-67
2024/03/24 07:53:44;;;;;;;;;;;;;;;12.98;45.54;93790.09;4173950;28;20019;-68
2024/03/24 07:55:44;;;;;;;;;;;;;;;13.02;45.39;93793.97;4171491;28;20035;-68
2024/03/24 07:57:45;;;;;;;;;;;;;;;13.06;45.55;93797.03;4164154;28;19971;-69
2024/03/24 07:59:45;;;;;;;;;;;;;;;13.14;45.31;93790.75;4169428;28;20727;-68
2024/03/24 08:01:46;;;;;;;;;;;;;;;13.37;44.63;93793.91;4167898;28;19925;-68
2024/03/24 08:03:46;;;;;;;;;;;;;;;13.63;44.29;93785.25;4174537;28;20437;-69
2024/03/24 08:05:47;;;;;;;;;;;;;;;13.74;43.66;93781.22;4163544;28;19931;-68
2024/03/24 08:07:48;;;;;;;;;;;;;;;13.91;43.70;93779.81;4180010;28;20444;-68
2024/03/24 08:09:49;;;;;;;;;;;;;;;14.02;43.36;93770.50;4174637;28;19925;-66
2024/03/24 08:11:50;;;;;;;;;;;;;;;14.18;43.33;93771.13;4170732;28;20030;-68
2024/03/24 08:13:51;;;;;;;;;;;;;;;14.42;43.23;93772.31;4171750;28;20338;-70
2024/03/24 08:15:52;;;;;;;;;;;;;;;14.61;42.78;93760.94;4173451;28;19929;-69
2024/03/24 08:17:53;;;;;;;;;;;;;;;14.84;42.15;93757.84;4176556;28;19925;-69
2024/03/24 08:19:54;;;;;;;;;;;;;;;14.95;41.65;93756.41;4169209;28;19982;-69
2024/03/24 08:21:56;;;;;;;;;;;;;;;15.02;40.61;93753.72;4138142;28;19930;-68
2024/03/24 08:23:56;;;;;;;;;;;;;;;14.75;41.12;93748.53;4170504;28;19921;-67
2024/03/24 08:25:58;;;;;;;;;;;;;;;14.28;42.21;93748.63;4161175;28;19944;-69
2024/03/24 08:27:58;;;;;;;;;;;;;;;14.20;42.49;93735.66;4167797;28;19921;-70
2024/03/24 08:29:59;;;;;;;;;;;;;;;14.46;42.69;93734.00;4163545;28;19921;-67
2024/03/24 08:31:59;;;;;;;;;;;;;;;14.85;42.37;93732.28;4150343;28;19956;-67
2024/03/24 08:34:01;;;;;;;;;;;;;;;15.13;42.04;93732.75;4171776;28;19976;-67
2024/03/24 08:36:02;;;;;;;;;;;;;;;15.43;41.53;93724.28;4165593;28;20489;-68
2024/03/24 08:38:03;;;;;;;;;;;;;;;15.47;40.93;93719.41;4161460;28;19979;-68
2024/03/24 08:40:06;;;;;;;;;;;;;;;15.64;40.63;93722.31;4167688;28;19970;-67
2024/03/24 08:42:06;;;;;;;;;;;;;;;15.77;39.49;93716.97;4170926;28;19928;-68
2024/03/24 08:44:07;;;;;;;;;;;;;;;15.92;40.64;93716.66;4168573;28;19924;-68
2024/03/24 08:46:07;;;;;;;;;;;;;;;15.99;39.83;93711.31;4173808;28;19921;-68
2024/03/24 08:48:09;;;;;;;;;;;;;;;15.83;39.13;93702.91;4166068;28;19920;-69
2024/03/24 08:50:10;;;;;;;;;;;;;;;15.97;39.13;93709.69;4160059;28;19928;-69
2024/03/24 08:52:13;;;;;;;;;;;;;;;16.05;38.02;93698.06;4166127;28;19968;-69
2024/03/24 08:54:13;;;;;;;;;;;;;;;16.15;36.94;93693.09;4161785;28;19968;-69
2024/03/24 08:56:14;;;;;;;;;;;;;;;16.09;37.11;93687.84;4175122;28;20225;-68
2024/03/24 08:58:15;;;;;;;;;;;;;;;16.05;36.96;93692.78;4172564;28;19990;-68
2024/03/24 09:00:16;;;;;;;;;;;;;;;16.18;37.35;93690.00;4171972;28;20372;-68
2024/03/24 09:02:17;;;;;;;;;;;;;;;16.20;36.88;93675.75;4169957;28;19921;-67
2024/03/24 09:04:18;;;;;;;;;;;;;;;16.32;36.77;93688.03;4167990;28;19970;-69
2024/03/24 09:06:18;;;;;;;;;;;;;;;16.17;36.48;93671.72;4172185;28;20011;-67
2024/03/24 09:08:19;;;;;;;;;;;;;;;16.08;36.73;93671.19;4169217;28;19924;-68
2024/03/24 09:10:19;;;;;;;;;;;;;;;16.14;37.16;93682.72;4174113;28;19920;-68
2024/03/24 09:12:20;;;;;;;;;;;;;;;16.13;36.73;93683.75;4164639;28;19998;-67
2024/03/24 09:14:22;;;;;;;;;;;;;;;16.21;36.76;93691.41;4173132;28;20119;-67
2024/03/24 09:16:23;;;;;;;;;;;;;;;16.32;36.41;93679.28;4151139;28;19929;-69
2024/03/24 09:18:23;;;;;;;;;;;;;;;16.43;36.43;93680.41;4171048;28;19921;-68
2024/03/24 09:20:24;;;;;;;;;;;;;;;16.33;36.45;93686.22;4154760;28;20506;-71
2024/03/24 09:22:24;;;;;;;;;;;;;;;16.31;36.40;93675.84;4170152;28;20368;-68
2024/03/24 09:24:25;;;;;;;;;;;;;;;16.51;36.54;93677.47;4168301;28;19928;-67
2024/03/24 09:26:26;;;;;;;;;;;;;;;16.46;36.31;93669.41;4173192;28;19928;-68
2024/03/24 09:28:26;;;;;;;;;;;;;;;16.36;36.60;93662.78;4175877;28;19967;-68
2024/03/24 09:30:28;;;;;;;;;;;;;;;16.48;36.42;93675.28;4167980;28;20033;-67
2024/03/24 09:32:28;;;;;;;;;;;;;;;16.53;36.44;93672.78;4172550;28;19921;-68
2024/03/24 09:34:29;;;;;;;;;;;;;;;16.64;36.52;93681.81;4174163;28;20014;-67
2024/03/24 09:36:30;;;;;;;;;;;;;;;16.78;35.98;93673.50;4176555;28;20014;-70
2024/03/24 09:38:30;;;;;;;;;;;;;;;16.88;36.17;93670.34;4168801;28;20240;-67
2024/03/24 09:40:31;;;;;;;;;;;;;;;16.97;35.90;93684.91;4175066;28;20292;-68
2024/03/24 09:42:32;;;;;;;;;;;;;;;17.06;35.83;93666.06;4174427;28;20320;-67
2024/03/24 09:44:33;;;;;;;;;;;;;;;17.00;36.03;93651.88;4168852;28;19924;-70
2024/03/24 09:46:34;;;;;;;;;;;;;;;16.96;35.92;93666.59;4159026;28;20380;-69
2024/03/24 09:48:34;;;;;;;;;;;;;;;16.91;36.25;93661.19;4159087;28;20352;-65
2024/03/24 09:50:35;;;;;;;;;;;;;;;16.98;35.88;93644.16;4177800;28;20098;-67
2024/03/24 09:52:36;;;;;;;;;;;;;;;17.02;35.97;93647.19;4161197;28;20319;-68
2024/03/24 09:54:37;;;;;;;;;;;;;;;16.84;35.50;93631.34;4176433;28;20302;-68
2024/03/24 09:56:38;;;;;;;;;;;;;;;16.65;35.68;93638.47;4177972;28;19921;-69
2024/03/24 09:58:39;;;;;;;;;;;;;;;16.65;35.67;93638.47;4161546;28;19928;-70
2024/03/24 10:00:39;;;;;;;;;;;;;;;16.94;35.64;93626.31;4174625;28;19920;-68
2024/03/24 10:02:40;;;;;;;;;;;;;;;17.24;34.87;93625.50;4165706;28;19921;-68
2024/03/24 10:04:41;;;;;;;;;;;;;;;17.27;34.92;93635.63;4176062;28;19920;-67
2024/03/24 10:06:42;;;;;;;;;;;;;;;17.20;34.67;93638.38;4152583;28;20189;-68
2024/03/24 10:08:43;;;;;;;;;;;;;;;17.30;35.33;93614.81;4171943;28;19925;-70
2024/03/24 10:10:44;;;;;;;;;;;;;;;17.60;34.13;93609.47;4172624;28;19921;-68
2024/03/24 10:12:51;;;;;;;;;;;;;;;17.53;33.88;93621.19;4162994;28;20265;-69
2024/03/24 10:14:52;;;;;;;;;;;;;;;17.66;34.02;93601.63;4160682;28;20376;-67
2024/03/24 10:16:52;;;;;;;;;;;;;;;17.53;33.76;93629.94;4173907;28;19951;-68
2024/03/24 10:18:53;;;;;;;;;;;;;;;17.46;33.69;93615.19;4149677;28;19936;-68
2024/03/24 10:20:54;;;;;;;;;;;;;;;17.40;34.09;93593.91;4174854;28;20131;-70
2024/03/24 10:22:55;;;;;;;;;;;;;;;17.58;34.23;93595.63;4163682;28;19921;-69
2024/03/24 10:24:55;;;;;;;;;;;;;;;17.69;34.04;93606.47;4166517;28;20363;-69
2024/03/24 10:26:58;;;;;;;;;;;;;;;17.43;33.92;93602.41;4169063;28;19981;-69
2024/03/24 10:29:01;;;;;;;;;;;;;;;17.58;33.99;93606.22;4160000;28;19921;-67
2024/03/24 10:31:04;;;;;;;;;;;;;;;17.55;34.23;93587.34;4169114;28;19924;-69
2024/03/24 10:33:05;;;;;;;;;;;;;;;17.64;33.66;93590.44;4175451;28;19974;-69